Time,TemperatureF,DewpointF,PressureIn,WindDirection,WindDirectionDegrees,WindSpeedMPH,WindSpeedGustMPH,Humidity,HourlyPrecipIn,Conditions,Clouds,dailyrainin,SoftwareType,DateUTC
2013-01-02 00:00:00,11.9,2.4,29.91,South,187,0.0,1.0,65,0.00,,,0.00,Wunderground v.1.15,2013-01-02 05:00:00,
2013-01-02 00:02:00,11.9,2.4,29.91,South,187,0.0,1.0,65,0.00,,,0.00,Wunderground v.1.15,2013-01-02 05:02:00,
2013-01-02 00:05:00,11.9,2.4,29.91,South,187,0.0,1.0,65,0.00,,,0.00,Wunderground v.1.15,2013-01-02 05:05:00,
2013-01-02 00:08:00,11.9,2.4,29.91,South,187,0.0,0.0,65,0.00,,,0.00,Wunderground v.1.15,2013-01-02 05:08:00,
2013-01-02 00:13:00,11.7,2.5,29.91,South,187,0.0,0.0,66,0.00,,,0.00,Wunderground v.1.15,2013-01-02 05:13:00,
2013-01-02 00:19:00,11.7,2.2,29.91,South,187,1.0,1.0,65,0.00,,,0.00,Wunderground v.1.15,2013-01-02 05:19:00,
2013-01-02 00:24:00,11.6,2.4,29.91,South,187,0.0,1.0,66,0.00,,,0.00,Wunderground v.1.15,2013-01-02 05:24:00,
2013-01-02 00:30:00,11.4,1.9,29.90,South,187,0.0,0.0,65,0.00,,,0.00,Wunderground v.1.15,2013-01-02 05:30:00,
2013-01-02 00:35:00,11.4,2.2,29.90,South,187,0.0,0.0,66,0.00,,,0.00,Wunderground v.1.15,2013-01-02 05:35:00,
2013-01-02 00:41:00,11.2,2.0,29.90,South,187,0.0,0.0,66,0.00,,,0.00,Wunderground v.1.15,2013-01-02 05:41:00,
2013-01-02 00:46:00,11.2,1.7,29.91,South,187,0.0,0.0,65,0.00,,,0.00,Wunderground v.1.15,2013-01-02 05:46:00,
2013-01-02 00:52:00,11.2,2.0,29.91,South,187,0.0,1.0,66,0.00,,,0.00,Wunderground v.1.15,2013-01-02 05:52:00,
2013-01-02 00:57:00,11.1,1.9,29.90,South,187,0.0,0.0,66,0.00,,,0.00,Wunderground v.1.15,2013-01-02 05:57:00,
2013-01-02 01:03:00,11.1,1.9,29.90,South,187,0.0,0.0,66,0.00,,,0.00,Wunderground v.1.15,2013-01-02 06:03:00,
2013-01-02 01:09:00,10.9,1.8,29.90,South,187,1.0,1.0,66,0.00,,,0.00,Wunderground v.1.15,2013-01-02 06:09:00,
2013-01-02 01:14:00,10.9,1.8,29.91,South,187,0.0,1.0,66,0.00,,,0.00,Wunderground v.1.15,2013-01-02 06:14:00,
2013-01-02 01:20:00,10.7,1.6,29.91,South,187,0.0,0.0,66,0.00,,,0.00,Wunderground v.1.15,2013-01-02 06:20:00,
2013-01-02 01:26:00,10.7,1.6,29.91,South,187,0.0,0.0,66,0.00,,,0.00,Wunderground v.1.15,2013-01-02 06:26:00,
2013-01-02 01:31:00,10.5,1.4,29.91,South,187,0.0,0.0,66,0.00,,,0.00,Wunderground v.1.15,2013-01-02 06:31:00,
2013-01-02 01:36:00,10.4,1.6,29.91,South,187,0.0,0.0,67,0.00,,,0.00,Wunderground v.1.15,2013-01-02 06:36:00,
2013-01-02 01:42:00,10.2,1.4,29.92,South,187,0.0,0.0,67,0.00,,,0.00,Wunderground v.1.15,2013-01-02 06:42:00,
2013-01-02 01:47:00,10.0,1.2,29.92,South,187,0.0,0.0,67,0.00,,,0.00,Wunderground v.1.15,2013-01-02 06:47:00,
2013-01-02 01:52:00,9.9,1.1,29.92,South,187,0.0,0.0,67,0.00,,,0.00,Wunderground v.1.15,2013-01-02 06:52:00,
2013-01-02 01:57:00,9.7,0.9,29.92,South,187,0.0,0.0,67,0.00,,,0.00,Wunderground v.1.15,2013-01-02 06:57:00,
2013-01-02 02:02:00,9.5,0.7,29.92,South,187,0.0,0.0,67,0.00,,,0.00,Wunderground v.1.15,2013-01-02 07:02:00,
2013-01-02 02:08:00,9.3,0.5,29.92,South,187,0.0,0.0,67,0.00,,,0.00,Wunderground v.1.15,2013-01-02 07:08:00,
2013-01-02 02:13:00,9.0,0.3,29.93,South,187,0.0,0.0,67,0.00,,,0.00,Wunderground v.1.15,2013-01-02 07:13:00,
2013-01-02 02:18:00,8.6,0.2,29.93,South,187,0.0,0.0,68,0.00,,,0.00,Wunderground v.1.15,2013-01-02 07:18:00,
2013-01-02 02:23:00,8.4,0.0,29.93,South,187,0.0,0.0,68,0.00,,,0.00,Wunderground v.1.15,2013-01-02 07:23:00,
2013-01-02 02:28:00,8.1,0.0,29.93,South,187,0.0,0.0,69,0.00,,,0.00,Wunderground v.1.15,2013-01-02 07:28:00,
2013-01-02 02:34:00,7.9,-0.2,29.93,South,187,0.0,0.0,69,0.00,,,0.00,Wunderground v.1.15,2013-01-02 07:34:00,
2013-01-02 02:39:00,7.7,-0.4,29.93,South,187,0.0,0.0,69,0.00,,,0.00,Wunderground v.1.15,2013-01-02 07:39:00,
2013-01-02 02:44:00,7.6,-0.5,29.92,South,187,0.0,0.0,69,0.00,,,0.00,Wunderground v.1.15,2013-01-02 07:44:00,
2013-01-02 02:49:00,7.2,-0.5,29.92,South,187,0.0,0.0,70,0.00,,,0.00,Wunderground v.1.15,2013-01-02 07:49:00,
2013-01-02 02:54:00,7.0,-0.4,29.92,South,187,0.0,0.0,71,0.00,,,0.00,Wunderground v.1.15,2013-01-02 07:54:00,
2013-01-02 02:59:00,6.9,-0.5,29.91,South,187,0.0,0.0,71,0.00,,,0.00,Wunderground v.1.15,2013-01-02 07:59:00,
2013-01-02 03:04:00,6.7,-0.4,29.91,South,187,0.0,0.0,72,0.00,,,0.00,Wunderground v.1.15,2013-01-02 08:04:00,
2013-01-02 03:10:00,6.5,-0.6,29.91,South,187,0.0,0.0,72,0.00,,,0.00,Wunderground v.1.15,2013-01-02 08:10:00,
2013-01-02 03:15:00,6.5,-0.3,29.91,South,187,0.0,0.0,73,0.00,,,0.00,Wunderground v.1.15,2013-01-02 08:15:00,
2013-01-02 03:20:00,6.5,-0.3,29.91,South,187,0.0,1.0,73,0.00,,,0.00,Wunderground v.1.15,2013-01-02 08:20:00,
2013-01-02 03:25:00,6.3,-0.2,29.91,South,170,1.0,1.0,74,0.00,,,0.00,Wunderground v.1.15,2013-01-02 08:25:00,
2013-01-02 03:30:00,6.3,-0.2,29.91,South,170,0.0,1.0,74,0.00,,,0.00,Wunderground v.1.15,2013-01-02 08:30:00,
2013-01-02 03:35:00,6.3,0.1,29.91,SE,126,0.0,1.0,75,0.00,,,0.00,Wunderground v.1.15,2013-01-02 08:35:00,
2013-01-02 03:40:00,6.3,0.1,29.91,SE,129,0.0,1.0,75,0.00,,,0.00,Wunderground v.1.15,2013-01-02 08:40:00,
2013-01-02 03:46:00,6.5,0.5,29.91,SE,129,0.0,1.0,76,0.00,,,0.00,Wunderground v.1.15,2013-01-02 08:46:00,
2013-01-02 03:51:00,6.5,0.5,29.91,SE,129,0.0,0.0,76,0.00,,,0.00,Wunderground v.1.15,2013-01-02 08:51:00,
2013-01-02 03:56:00,6.7,0.7,29.91,SE,129,0.0,0.0,76,0.00,,,0.00,Wunderground v.1.15,2013-01-02 08:56:00,
2013-01-02 04:01:00,6.7,0.7,29.91,SE,129,0.0,1.0,76,0.00,,,0.00,Wunderground v.1.15,2013-01-02 09:01:00,
2013-01-02 04:06:00,6.9,0.9,29.91,SE,129,0.0,1.0,76,0.00,,,0.00,Wunderground v.1.15,2013-01-02 09:06:00,
2013-01-02 04:11:00,6.9,0.9,29.91,SE,129,0.0,0.0,76,0.00,,,0.00,Wunderground v.1.15,2013-01-02 09:11:00,
2013-01-02 04:16:00,6.9,0.9,29.90,SE,129,0.0,0.0,76,0.00,,,0.00,Wunderground v.1.15,2013-01-02 09:16:00,
2013-01-02 04:21:00,6.9,0.9,29.90,SE,129,0.0,0.0,76,0.00,,,0.00,Wunderground v.1.15,2013-01-02 09:21:00,
2013-01-02 04:26:00,6.9,0.9,29.90,SE,129,0.0,0.0,76,0.00,,,0.00,Wunderground v.1.15,2013-01-02 09:26:00,
2013-01-02 04:31:00,6.9,0.6,29.90,SE,129,0.0,0.0,75,0.00,,,0.00,Wunderground v.1.15,2013-01-02 09:31:00,
2013-01-02 04:37:00,6.7,0.5,29.90,SE,129,0.0,0.0,75,0.00,,,0.00,Wunderground v.1.15,2013-01-02 09:37:00,
2013-01-02 04:42:00,6.5,0.3,29.90,SE,129,0.0,1.0,75,0.00,,,0.00,Wunderground v.1.15,2013-01-02 09:42:00,
2013-01-02 04:47:00,6.3,0.1,29.90,SE,126,0.0,0.0,75,0.00,,,0.00,Wunderground v.1.15,2013-01-02 09:47:00,
2013-01-02 04:52:00,6.3,0.3,29.90,SE,126,0.0,0.0,76,0.00,,,0.00,Wunderground v.1.15,2013-01-02 09:52:00,
2013-01-02 04:58:00,6.1,0.2,29.90,SE,126,0.0,0.0,76,0.00,,,0.00,Wunderground v.1.15,2013-01-02 09:58:00,
2013-01-02 05:03:00,6.0,0.1,29.90,SE,126,0.0,0.0,76,0.00,,,0.00,Wunderground v.1.15,2013-01-02 10:03:00,
2013-01-02 05:08:00,5.8,-0.1,29.90,SE,126,0.0,0.0,76,0.00,,,0.00,Wunderground v.1.15,2013-01-02 10:08:00,
2013-01-02 05:13:00,5.6,-0.3,29.90,SE,126,0.0,0.0,76,0.00,,,0.00,Wunderground v.1.15,2013-01-02 10:13:00,
2013-01-02 05:18:00,5.4,-0.2,29.90,SE,126,0.0,0.0,77,0.00,,,0.00,Wunderground v.1.15,2013-01-02 10:18:00,
2013-01-02 05:23:00,5.2,-0.4,29.90,SE,126,0.0,0.0,77,0.00,,,0.00,Wunderground v.1.15,2013-01-02 10:23:00,
2013-01-02 05:28:00,5.0,-0.6,29.90,SE,126,0.0,0.0,77,0.00,,,0.00,Wunderground v.1.15,2013-01-02 10:28:00,
2013-01-02 05:33:00,5.0,-0.6,29.90,SE,126,0.0,0.0,77,0.00,,,0.00,Wunderground v.1.15,2013-01-02 10:33:00,
2013-01-02 05:39:00,4.8,-0.6,29.90,SE,126,0.0,0.0,78,0.00,,,0.00,Wunderground v.1.15,2013-01-02 10:39:00,
2013-01-02 05:44:00,4.8,-0.6,29.90,SE,126,0.0,0.0,78,0.00,,,0.00,Wunderground v.1.15,2013-01-02 10:44:00,
2013-01-02 05:49:00,4.7,-0.7,29.90,SE,126,0.0,0.0,78,0.00,,,0.00,Wunderground v.1.15,2013-01-02 10:49:00,
2013-01-02 05:54:00,4.7,-0.4,29.90,SE,126,0.0,0.0,79,0.00,,,0.00,Wunderground v.1.15,2013-01-02 10:54:00,
2013-01-02 05:59:00,4.7,-0.4,29.90,SE,126,0.0,0.0,79,0.00,,,0.00,Wunderground v.1.15,2013-01-02 10:59:00,
2013-01-02 06:04:00,4.7,-0.4,29.90,SE,126,0.0,0.0,79,0.00,,,0.00,Wunderground v.1.15,2013-01-02 11:04:00,
2013-01-02 06:09:00,4.8,-0.3,29.90,SE,126,0.0,0.0,79,0.00,,,0.00,Wunderground v.1.15,2013-01-02 11:09:00,
2013-01-02 06:15:00,4.8,0.0,29.90,SE,126,0.0,0.0,80,0.00,,,0.00,Wunderground v.1.15,2013-01-02 11:15:00,
2013-01-02 06:20:00,5.0,0.2,29.90,SE,126,0.0,0.0,80,0.00,,,0.00,Wunderground v.1.15,2013-01-02 11:20:00,
2013-01-02 06:25:00,5.0,0.2,29.90,SE,126,0.0,0.0,80,0.00,,,0.00,Wunderground v.1.15,2013-01-02 11:25:00,
2013-01-02 06:30:00,5.0,0.2,29.90,SE,126,0.0,0.0,80,0.00,,,0.00,Wunderground v.1.15,2013-01-02 11:30:00,
2013-01-02 06:35:00,5.2,0.4,29.90,SE,126,0.0,0.0,80,0.00,,,0.00,Wunderground v.1.15,2013-01-02 11:35:00,
2013-01-02 06:40:00,5.4,0.8,29.90,SE,126,0.0,0.0,81,0.00,,,0.00,Wunderground v.1.15,2013-01-02 11:40:00,
2013-01-02 06:45:00,5.6,1.0,29.89,SE,126,0.0,0.0,81,0.00,,,0.00,Wunderground v.1.15,2013-01-02 11:45:00,
2013-01-02 06:50:00,5.8,1.2,29.89,SE,126,0.0,0.0,81,0.00,,,0.00,Wunderground v.1.15,2013-01-02 11:50:00,
2013-01-02 06:55:00,6.0,1.4,29.89,SE,126,0.0,0.0,81,0.00,,,0.00,Wunderground v.1.15,2013-01-02 11:55:00,
2013-01-02 07:00:00,6.1,1.5,29.89,SE,126,0.0,0.0,81,0.00,,,0.00,Wunderground v.1.15,2013-01-02 12:00:00,
2013-01-02 07:05:00,6.3,1.7,29.89,SE,126,0.0,0.0,81,0.00,,,0.00,Wunderground v.1.15,2013-01-02 12:05:00,
2013-01-02 07:10:00,6.5,1.9,29.89,SE,126,0.0,0.0,81,0.00,,,0.00,Wunderground v.1.15,2013-01-02 12:10:00,
2013-01-02 07:15:00,6.7,2.1,29.89,SE,126,0.0,0.0,81,0.00,,,0.00,Wunderground v.1.15,2013-01-02 12:15:00,
2013-01-02 07:21:00,6.7,2.1,29.89,SE,126,0.0,0.0,81,0.00,,,0.00,Wunderground v.1.15,2013-01-02 12:21:00,
2013-01-02 07:26:00,6.9,2.6,29.89,SE,126,0.0,0.0,82,0.00,,,0.00,Wunderground v.1.15,2013-01-02 12:26:00,
2013-01-02 07:31:00,7.0,2.7,29.89,SE,126,0.0,0.0,82,0.00,,,0.00,Wunderground v.1.15,2013-01-02 12:31:00,
2013-01-02 07:36:00,7.2,2.9,29.89,SE,126,0.0,0.0,82,0.00,,,0.00,Wunderground v.1.15,2013-01-02 12:36:00,
2013-01-02 07:41:00,7.6,3.5,29.88,SE,126,1.0,1.0,83,0.00,,,0.00,Wunderground v.1.15,2013-01-02 12:41:00,
2013-01-02 07:46:00,8.3,4.5,29.88,SE,126,0.0,0.0,84,0.00,,,0.00,Wunderground v.1.15,2013-01-02 12:46:00,
2013-01-02 07:51:00,9.2,4.8,29.88,SE,126,0.0,0.0,82,0.00,,,0.00,Wunderground v.1.15,2013-01-02 12:51:00,
2013-01-02 07:56:00,9.7,4.8,29.88,ESE,112,0.0,0.0,80,0.00,,,0.00,Wunderground v.1.15,2013-01-02 12:56:00,
2013-01-02 08:02:00,10.2,4.7,29.88,ESE,112,0.0,1.0,78,0.00,,,0.00,Wunderground v.1.15,2013-01-02 13:02:00,
2013-01-02 08:07:00,10.7,5.2,29.88,ESE,112,0.0,0.0,78,0.00,,,0.00,Wunderground v.1.15,2013-01-02 13:07:00,
2013-01-02 08:12:00,11.2,4.5,29.88,SE,128,0.0,1.0,74,0.00,,,0.00,Wunderground v.1.15,2013-01-02 13:12:00,
2013-01-02 08:17:00,11.7,5.0,29.88,SE,128,0.0,1.0,74,0.00,,,0.00,Wunderground v.1.15,2013-01-02 13:17:00,
2013-01-02 08:23:00,12.3,5.6,29.88,ESE,122,1.0,1.0,74,0.00,,,0.00,Wunderground v.1.15,2013-01-02 13:23:00,
2013-01-02 08:28:00,12.6,5.0,29.88,ESE,122,0.0,0.0,71,0.00,,,0.00,Wunderground v.1.15,2013-01-02 13:28:00,
2013-01-02 08:33:00,12.9,5.3,29.88,ESE,122,0.0,0.0,71,0.00,,,0.00,Wunderground v.1.15,2013-01-02 13:33:00,
2013-01-02 08:39:00,13.3,5.6,29.88,ESE,122,0.0,1.0,71,0.00,,,0.00,Wunderground v.1.15,2013-01-02 13:39:00,
2013-01-02 08:44:00,13.8,5.8,29.87,ESE,122,0.0,1.0,70,0.00,,,0.00,Wunderground v.1.15,2013-01-02 13:44:00,
2013-01-02 08:49:00,14.1,6.1,29.87,SE,128,0.0,1.0,70,0.00,,,0.00,Wunderground v.1.15,2013-01-02 13:49:00,
2013-01-02 08:54:00,14.4,5.8,29.87,South,176,0.0,2.0,68,0.00,,,0.00,Wunderground v.1.15,2013-01-02 13:54:00,
2013-01-02 09:00:00,14.6,6.0,29.88,South,172,0.0,1.0,68,0.00,,,0.00,Wunderground v.1.15,2013-01-02 14:00:00,
2013-01-02 09:05:00,14.9,6.2,29.88,South,174,1.0,1.0,68,0.00,,,0.00,Wunderground v.1.15,2013-01-02 14:05:00,
2013-01-02 09:10:00,15.2,6.2,29.88,South,170,0.0,1.0,67,0.00,,,0.00,Wunderground v.1.15,2013-01-02 14:10:00,
2013-01-02 09:15:00,15.6,6.9,29.89,South,169,0.0,1.0,68,0.00,,,0.00,Wunderground v.1.15,2013-01-02 14:15:00,
2013-01-02 09:20:00,15.9,7.2,29.89,South,169,0.0,1.0,68,0.00,,,0.00,Wunderground v.1.15,2013-01-02 14:20:00,
2013-01-02 09:25:00,16.2,7.2,29.89,South,169,0.0,1.0,67,0.00,,,0.00,Wunderground v.1.15,2013-01-02 14:25:00,
2013-01-02 09:31:00,16.7,7.6,29.90,SE,146,0.0,2.0,67,0.00,,,0.00,Wunderground v.1.15,2013-01-02 14:31:00,
2013-01-02 09:36:00,16.9,7.2,29.90,SSW,198,0.0,0.0,65,0.00,,,0.00,Wunderground v.1.15,2013-01-02 14:36:00,
2013-01-02 09:41:00,17.2,7.4,29.90,South,169,0.0,4.0,65,0.00,,,0.00,Wunderground v.1.15,2013-01-02 14:41:00,
2013-01-02 09:46:00,17.2,7.4,29.90,South,169,1.0,1.0,65,0.00,,,0.00,Wunderground v.1.15,2013-01-02 14:46:00,
2013-01-02 09:51:00,17.3,7.9,29.90,SW,224,1.0,2.0,66,0.00,,,0.00,Wunderground v.1.15,2013-01-02 14:51:00,
2013-01-02 09:56:00,17.5,8.1,29.90,SSW,204,1.0,1.0,66,0.00,,,0.00,Wunderground v.1.15,2013-01-02 14:56:00,
2013-01-02 10:02:00,17.8,8.0,29.90,South,184,0.0,2.0,65,0.00,,,0.00,Wunderground v.1.15,2013-01-02 15:02:00,
2013-01-02 10:07:00,18.1,8.6,29.90,SSE,153,1.0,1.0,66,0.00,,,0.00,Wunderground v.1.15,2013-01-02 15:07:00,
2013-01-02 10:13:00,18.4,8.9,29.90,SSW,203,1.0,1.0,66,0.00,,,0.00,Wunderground v.1.15,2013-01-02 15:13:00,
2013-01-02 10:18:00,18.6,9.1,29.90,SSW,203,0.0,1.0,66,0.00,,,0.00,Wunderground v.1.15,2013-01-02 15:18:00,
2013-01-02 10:23:00,18.8,9.3,29.90,SSE,150,1.0,1.0,66,0.00,,,0.00,Wunderground v.1.15,2013-01-02 15:23:00,
2013-01-02 10:28:00,19.1,9.3,29.89,South,182,0.0,2.0,65,0.00,,,0.00,Wunderground v.1.15,2013-01-02 15:28:00,
2013-01-02 10:33:00,19.4,9.9,29.89,SSW,201,0.0,2.0,66,0.00,,,0.00,Wunderground v.1.15,2013-01-02 15:33:00,
2013-01-02 10:38:00,19.5,9.6,29.89,SSE,153,0.0,1.0,65,0.00,,,0.00,Wunderground v.1.15,2013-01-02 15:38:00,
2013-01-02 10:43:00,20.0,10.1,29.89,SSE,155,1.0,1.0,65,0.00,,,0.00,Wunderground v.1.15,2013-01-02 15:43:00,
2013-01-02 10:48:00,20.3,10.1,29.89,SSE,155,0.0,1.0,64,0.00,,,0.00,Wunderground v.1.15,2013-01-02 15:48:00,
2013-01-02 10:53:00,20.8,10.9,29.89,SSW,200,2.0,2.0,65,0.00,,,0.00,Wunderground v.1.15,2013-01-02 15:53:00,
2013-01-02 10:59:00,21.0,11.1,29.89,SSW,200,0.0,1.0,65,0.00,,,0.00,Wunderground v.1.15,2013-01-02 15:59:00,
2013-01-02 11:04:00,21.4,11.1,29.89,SSW,200,0.0,1.0,64,0.00,,,0.00,Wunderground v.1.15,2013-01-02 16:04:00,
2013-01-02 11:09:00,21.9,12.6,29.89,SSW,200,0.0,1.0,67,0.00,,,0.00,Wunderground v.1.15,2013-01-02 16:09:00,
2013-01-02 11:14:00,22.2,11.5,29.89,SSW,210,0.0,2.0,63,0.00,,,0.00,Wunderground v.1.15,2013-01-02 16:14:00,
2013-01-02 11:19:00,22.5,11.8,29.89,SW,215,0.0,2.0,63,0.00,,,0.00,Wunderground v.1.15,2013-01-02 16:19:00,
2013-01-02 11:24:00,22.7,12.7,29.89,SW,215,2.0,2.0,65,0.00,,,0.00,Wunderground v.1.15,2013-01-02 16:24:00,
2013-01-02 11:29:00,22.7,12.3,29.88,West,276,1.0,4.0,64,0.00,,,0.00,Wunderground v.1.15,2013-01-02 16:29:00,
2013-01-02 11:35:00,22.7,12.3,29.88,SW,231,0.0,4.0,64,0.00,,,0.00,Wunderground v.1.15,2013-01-02 16:35:00,
2013-01-02 11:40:00,22.7,12.0,29.88,West,262,0.0,4.0,63,0.00,,,0.00,Wunderground v.1.15,2013-01-02 16:40:00,
2013-01-02 11:45:00,22.7,12.7,29.88,West,262,0.0,4.0,65,0.00,,,0.00,Wunderground v.1.15,2013-01-02 16:45:00,
2013-01-02 11:50:00,23.0,12.6,29.88,West,262,1.0,1.0,64,0.00,,,0.00,Wunderground v.1.15,2013-01-02 16:50:00,
2013-01-02 11:55:00,23.2,12.1,29.88,West,276,1.0,2.0,62,0.00,,,0.00,Wunderground v.1.15,2013-01-02 16:55:00,
2013-01-02 12:00:00,23.2,10.6,29.88,NNW,331,1.0,4.0,58,0.00,,,0.00,Wunderground v.1.15,2013-01-02 17:00:00,
2013-01-02 12:06:00,23.2,12.5,29.88,WSW,248,2.0,4.0,63,0.00,,,0.00,Wunderground v.1.15,2013-01-02 17:06:00,
2013-01-02 12:11:00,23.2,11.0,29.88,West,275,1.0,2.0,59,0.00,,,0.00,Wunderground v.1.15,2013-01-02 17:11:00,
2013-01-02 12:16:00,23.2,11.4,29.88,West,270,0.0,4.0,60,0.00,,,0.00,Wunderground v.1.15,2013-01-02 17:16:00,
2013-01-02 12:21:00,23.0,11.9,29.88,West,268,2.0,2.0,62,0.00,,,0.00,Wunderground v.1.15,2013-01-02 17:21:00,
2013-01-02 12:26:00,23.0,12.6,29.88,WSW,241,4.0,6.0,64,0.00,,,0.00,Wunderground v.1.15,2013-01-02 17:26:00,
2013-01-02 12:31:00,22.9,11.8,29.88,WSW,249,4.0,6.0,62,0.00,,,0.00,Wunderground v.1.15,2013-01-02 17:31:00,
2013-01-02 12:36:00,22.7,11.6,29.88,West,270,2.0,2.0,62,0.00,,,0.00,Wunderground v.1.15,2013-01-02 17:36:00,
2013-01-02 12:41:00,22.7,12.3,29.88,SW,228,6.0,6.0,64,0.00,,,0.00,Wunderground v.1.15,2013-01-02 17:41:00,
2013-01-02 12:46:00,22.5,11.4,29.88,West,261,4.0,4.0,62,0.00,,,0.00,Wunderground v.1.15,2013-01-02 17:46:00,
2013-01-02 12:51:00,22.5,11.8,29.88,West,265,0.0,6.0,63,0.00,,,0.00,Wunderground v.1.15,2013-01-02 17:51:00,
2013-01-02 12:57:00,22.5,12.8,29.89,SW,225,4.0,4.0,66,0.00,,,0.00,Wunderground v.1.15,2013-01-02 17:57:00,
2013-01-02 13:02:00,22.7,12.0,29.89,SE,143,2.0,4.0,63,0.00,,,0.00,Wunderground v.1.15,2013-01-02 18:02:00,
2013-01-02 13:07:00,22.7,12.0,29.89,WSW,254,6.0,6.0,63,0.00,,,0.00,Wunderground v.1.15,2013-01-02 18:07:00,
2013-01-02 13:12:00,22.9,12.5,29.89,West,259,1.0,6.0,64,0.00,,,0.00,Wunderground v.1.15,2013-01-02 18:12:00,
2013-01-02 13:17:00,23.0,12.6,29.89,SW,234,1.0,2.0,64,0.00,,,0.00,Wunderground v.1.15,2013-01-02 18:17:00,
2013-01-02 13:22:00,23.0,13.0,29.89,SW,234,1.0,4.0,65,0.00,,,0.00,Wunderground v.1.15,2013-01-02 18:22:00,
2013-01-02 13:28:00,23.5,12.4,29.89,West,276,0.0,1.0,62,0.00,,,0.00,Wunderground v.1.15,2013-01-02 18:28:00,
2013-01-02 13:33:00,23.6,12.8,29.89,NW,316,1.0,4.0,63,0.00,,,0.00,Wunderground v.1.15,2013-01-02 18:33:00,
2013-01-02 13:38:00,23.2,12.8,29.89,West,265,1.0,6.0,64,0.00,,,0.00,Wunderground v.1.15,2013-01-02 18:38:00,
2013-01-02 13:43:00,22.9,12.5,29.90,NW,314,0.0,6.0,64,0.00,,,0.00,Wunderground v.1.15,2013-01-02 18:43:00,
2013-01-02 13:48:00,22.5,11.8,29.90,WNW,302,0.0,2.0,63,0.00,,,0.00,Wunderground v.1.15,2013-01-02 18:48:00,
2013-01-02 13:53:00,22.2,12.6,29.90,NNW,335,0.0,4.0,66,0.00,,,0.00,Wunderground v.1.15,2013-01-02 18:53:00,
2013-01-02 13:58:00,21.9,13.3,29.91,WSW,258,0.0,1.0,69,0.00,,,0.00,Wunderground v.1.15,2013-01-02 18:58:00,
2013-01-02 14:03:00,21.6,13.3,29.91,West,261,0.0,1.0,70,0.00,,,0.00,Wunderground v.1.15,2013-01-02 19:03:00,
2013-01-02 14:08:00,21.4,13.5,29.91,WSW,242,0.0,1.0,71,0.00,,,0.00,Wunderground v.1.15,2013-01-02 19:08:00,
2013-01-02 14:14:00,21.4,13.1,29.92,WSW,258,0.0,1.0,70,0.00,,,0.00,Wunderground v.1.15,2013-01-02 19:14:00,
2013-01-02 14:19:00,21.3,13.4,29.92,West,278,0.0,1.0,71,0.00,,,0.00,Wunderground v.1.15,2013-01-02 19:19:00,
2013-01-02 14:24:00,21.3,12.7,29.92,West,279,0.0,1.0,69,0.00,,,0.00,Wunderground v.1.15,2013-01-02 19:24:00,
2013-01-02 14:29:00,21.3,12.7,29.93,West,279,1.0,1.0,69,0.00,,,0.00,Wunderground v.1.15,2013-01-02 19:29:00,
2013-01-02 14:34:00,21.3,11.0,29.93,West,279,0.0,2.0,64,0.00,,,0.00,Wunderground v.1.15,2013-01-02 19:34:00,
2013-01-02 14:39:00,21.4,11.8,29.93,West,279,1.0,2.0,66,0.00,,,0.00,Wunderground v.1.15,2013-01-02 19:39:00,
2013-01-02 14:44:00,21.4,11.8,29.93,West,279,2.0,2.0,66,0.00,,,0.00,Wunderground v.1.15,2013-01-02 19:44:00,
2013-01-02 14:49:00,21.3,11.4,29.93,WNW,283,1.0,6.0,65,0.00,,,0.00,Wunderground v.1.15,2013-01-02 19:49:00,
2013-01-02 14:55:00,21.1,11.5,29.93,West,276,1.0,6.0,66,0.00,,,0.00,Wunderground v.1.15,2013-01-02 19:55:00,
2013-01-02 15:00:00,21.0,10.0,29.94,West,270,0.0,6.0,62,0.00,,,0.00,Wunderground v.1.15,2013-01-02 20:00:00,
2013-01-02 15:05:00,20.8,10.5,29.94,WNW,282,1.0,6.0,64,0.00,,,0.00,Wunderground v.1.15,2013-01-02 20:05:00,
2013-01-02 15:10:00,20.5,9.9,29.94,West,280,1.0,2.0,63,0.00,,,0.00,Wunderground v.1.15,2013-01-02 20:10:00,
2013-01-02 15:16:00,20.2,8.5,29.95,West,276,1.0,2.0,60,0.00,,,0.00,Wunderground v.1.15,2013-01-02 20:16:00,
2013-01-02 15:21:00,20.2,8.5,29.95,WNW,282,2.0,4.0,60,0.00,,,0.00,Wunderground v.1.15,2013-01-02 20:21:00,
2013-01-02 15:26:00,20.0,7.6,29.96,West,268,1.0,1.0,58,0.00,,,0.00,Wunderground v.1.15,2013-01-02 20:26:00,
2013-01-02 15:31:00,19.9,7.9,29.96,West,268,0.0,2.0,59,0.00,,,0.00,Wunderground v.1.15,2013-01-02 20:31:00,
2013-01-02 15:36:00,19.7,7.3,29.96,West,269,0.0,1.0,58,0.00,,,0.00,Wunderground v.1.15,2013-01-02 20:36:00,
2013-01-02 15:41:00,19.7,7.3,29.97,SW,232,1.0,2.0,58,0.00,,,0.00,Wunderground v.1.15,2013-01-02 20:41:00,
2013-01-02 15:47:00,19.5,7.1,29.97,West,268,1.0,1.0,58,0.00,,,0.00,Wunderground v.1.15,2013-01-02 20:47:00,
2013-01-02 15:52:00,19.5,7.1,29.97,West,275,1.0,2.0,58,0.00,,,0.00,Wunderground v.1.15,2013-01-02 20:52:00,
2013-01-02 15:57:00,19.4,7.0,29.98,WNW,286,1.0,1.0,58,0.00,,,0.00,Wunderground v.1.15,2013-01-02 20:57:00,
2013-01-02 16:02:00,19.2,5.7,29.98,NW,309,1.0,2.0,55,0.00,,,0.00,Wunderground v.1.15,2013-01-02 21:02:00,
2013-01-02 16:08:00,19.2,6.1,29.98,NW,309,2.0,2.0,56,0.00,,,0.00,Wunderground v.1.15,2013-01-02 21:08:00,
2013-01-02 16:12:00,19.2,6.8,29.98,West,269,0.0,2.0,58,0.00,,,0.00,Wunderground v.1.15,2013-01-02 21:12:00,
2013-01-02 16:18:00,18.9,7.3,29.98,WSW,251,0.0,1.0,60,0.00,,,0.00,Wunderground v.1.15,2013-01-02 21:18:00,
2013-01-02 16:23:00,18.8,6.8,29.98,West,278,0.0,2.0,59,0.00,,,0.00,Wunderground v.1.15,2013-01-02 21:23:00,
2013-01-02 16:28:00,18.6,7.0,29.99,West,278,0.0,1.0,60,0.00,,,0.00,Wunderground v.1.15,2013-01-02 21:28:00,
2013-01-02 16:33:00,18.4,6.8,29.99,West,278,0.0,1.0,60,0.00,,,0.00,Wunderground v.1.15,2013-01-02 21:33:00,
2013-01-02 16:38:00,18.1,6.2,29.99,North,358,0.0,0.0,59,0.00,,,0.00,Wunderground v.1.15,2013-01-02 21:38:00,
2013-01-02 16:43:00,18.0,5.7,30.00,North,358,0.0,2.0,58,0.00,,,0.00,Wunderground v.1.15,2013-01-02 21:43:00,
2013-01-02 16:48:00,17.8,5.1,30.00,North,358,0.0,0.0,57,0.00,,,0.00,Wunderground v.1.15,2013-01-02 21:48:00,
2013-01-02 16:53:00,17.8,5.5,30.00,East,87,0.0,1.0,58,0.00,,,0.00,Wunderground v.1.15,2013-01-02 21:53:00,
2013-01-02 16:58:00,17.7,5.4,30.00,East,87,0.0,0.0,58,0.00,,,0.00,Wunderground v.1.15,2013-01-02 21:58:00,
2013-01-02 17:03:00,17.7,5.8,30.00,East,87,1.0,1.0,59,0.00,,,0.00,Wunderground v.1.15,2013-01-02 22:03:00,
2013-01-02 17:09:00,17.5,5.6,30.00,East,87,0.0,0.0,59,0.00,,,0.00,Wunderground v.1.15,2013-01-02 22:09:00,
2013-01-02 17:14:00,17.3,5.0,30.01,East,87,0.0,0.0,58,0.00,,,0.00,Wunderground v.1.15,2013-01-02 22:14:00,
2013-01-02 17:19:00,17.2,4.6,30.01,East,87,0.0,0.0,57,0.00,,,0.00,Wunderground v.1.15,2013-01-02 22:19:00,
2013-01-02 17:24:00,17.0,4.7,30.01,East,87,0.0,0.0,58,0.00,,,0.00,Wunderground v.1.15,2013-01-02 22:24:00,
2013-01-02 17:29:00,16.9,3.9,30.02,West,266,1.0,1.0,56,0.00,,,0.00,Wunderground v.1.15,2013-01-02 22:29:00,
2013-01-02 17:34:00,16.5,5.4,30.02,West,265,0.0,1.0,61,0.00,,,0.00,Wunderground v.1.15,2013-01-02 22:34:00,
2013-01-02 17:40:00,16.1,5.4,30.02,West,275,1.0,1.0,62,0.00,,,0.00,Wunderground v.1.15,2013-01-02 22:40:00,
2013-01-02 17:45:00,15.9,4.4,30.03,West,276,1.0,2.0,60,0.00,,,0.00,Wunderground v.1.15,2013-01-02 22:45:00,
2013-01-02 17:50:00,15.7,3.9,30.03,West,280,0.0,1.0,59,0.00,,,0.00,Wunderground v.1.15,2013-01-02 22:50:00,
2013-01-02 17:55:00,15.7,3.9,30.03,WNW,283,1.0,1.0,59,0.00,,,0.00,Wunderground v.1.15,2013-01-02 22:55:00,
2013-01-02 18:00:00,15.6,3.4,30.04,WNW,283,2.0,2.0,58,0.00,,,0.00,Wunderground v.1.15,2013-01-02 23:00:00,
2013-01-02 18:05:00,15.4,3.6,30.04,West,273,1.0,2.0,59,0.00,,,0.00,Wunderground v.1.15,2013-01-02 23:05:00,
2013-01-02 18:10:00,15.1,3.3,30.04,West,276,0.0,1.0,59,0.00,,,0.00,Wunderground v.1.15,2013-01-02 23:10:00,
2013-01-02 18:15:00,14.9,3.9,30.05,West,276,0.0,1.0,61,0.00,,,0.00,Wunderground v.1.15,2013-01-02 23:15:00,
2013-01-02 18:20:00,14.6,3.6,30.05,WNW,283,2.0,2.0,61,0.00,,,0.00,Wunderground v.1.15,2013-01-02 23:20:00,
2013-01-02 18:25:00,14.3,2.9,30.05,WNW,285,1.0,2.0,60,0.00,,,0.00,Wunderground v.1.15,2013-01-02 23:25:00,
2013-01-02 18:30:00,14.0,2.7,30.05,WNW,285,0.0,1.0,60,0.00,,,0.00,Wunderground v.1.15,2013-01-02 23:30:00,
2013-01-02 18:36:00,14.0,2.7,30.05,NNW,341,0.0,1.0,60,0.00,,,0.00,Wunderground v.1.15,2013-01-02 23:36:00,
2013-01-02 18:41:00,13.6,2.3,30.05,NNW,341,0.0,0.0,60,0.00,,,0.00,Wunderground v.1.15,2013-01-02 23:41:00,
2013-01-02 18:46:00,13.5,1.8,30.06,NW,318,0.0,0.0,59,0.00,,,0.00,Wunderground v.1.15,2013-01-02 23:46:00,
2013-01-02 18:51:00,13.1,1.4,30.06,NW,304,1.0,1.0,59,0.00,,,0.00,Wunderground v.1.15,2013-01-02 23:51:00,
2013-01-02 18:56:00,12.8,1.2,30.07,NW,306,1.0,1.0,59,0.00,,,0.00,Wunderground v.1.15,2013-01-02 23:56:00,
2013-01-02 19:02:00,12.6,1.0,30.07,WNW,286,0.0,2.0,59,0.00,,,0.00,Wunderground v.1.15,2013-01-03 00:02:00,
2013-01-02 19:07:00,12.4,0.0,30.07,WNW,286,0.0,1.0,57,0.00,,,0.00,Wunderground v.1.15,2013-01-03 00:07:00,
2013-01-02 19:13:00,12.3,0.3,30.07,WNW,289,0.0,1.0,58,0.00,,,0.00,Wunderground v.1.15,2013-01-03 00:13:00,
2013-01-02 19:18:00,11.9,-1.2,30.07,NNE,12,0.0,1.0,55,0.00,,,0.00,Wunderground v.1.15,2013-01-03 00:18:00,
2013-01-02 19:23:00,11.7,-1.4,30.07,NNW,344,1.0,2.0,55,0.00,,,0.00,Wunderground v.1.15,2013-01-03 00:23:00,
2013-01-02 19:28:00,11.4,-2.8,30.08,NNW,342,0.0,1.0,52,0.00,,,0.00,Wunderground v.1.15,2013-01-03 00:28:00,
2013-01-02 19:33:00,11.2,-3.0,30.08,WNW,285,0.0,4.0,52,0.00,,,0.00,Wunderground v.1.15,2013-01-03 00:33:00,
2013-01-02 19:38:00,10.9,-2.9,30.08,West,270,2.0,2.0,53,0.00,,,0.00,Wunderground v.1.15,2013-01-03 00:38:00,
2013-01-02 19:43:00,10.5,-4.1,30.09,West,265,1.0,4.0,51,0.00,,,0.00,Wunderground v.1.15,2013-01-03 00:43:00,
2013-01-02 19:48:00,10.0,-3.0,30.09,NW,317,1.0,2.0,55,0.00,,,0.00,Wunderground v.1.15,2013-01-03 00:48:00,
2013-01-02 19:54:00,9.7,-3.3,30.09,NW,314,1.0,6.0,55,0.00,,,0.00,Wunderground v.1.15,2013-01-03 00:54:00,
2013-01-02 19:59:00,9.3,-4.0,30.09,WNW,287,2.0,4.0,54,0.00,,,0.00,Wunderground v.1.15,2013-01-03 00:59:00,
2013-01-02 20:04:00,8.8,-4.1,30.09,WNW,303,1.0,6.0,55,0.00,,,0.00,Wunderground v.1.15,2013-01-03 01:04:00,
2013-01-02 20:09:00,8.4,-4.9,30.09,WNW,293,1.0,2.0,54,0.00,,,0.00,Wunderground v.1.15,2013-01-03 01:09:00,
2013-01-02 20:14:00,8.1,-4.8,30.09,West,279,2.0,6.0,55,0.00,,,0.00,Wunderground v.1.15,2013-01-03 01:14:00,
2013-01-02 20:19:00,7.7,-5.1,30.09,WNW,287,2.0,6.0,55,0.00,,,0.00,Wunderground v.1.15,2013-01-03 01:19:00,
2013-01-02 20:24:00,7.6,-5.2,30.09,WNW,300,4.0,6.0,55,0.00,,,0.00,Wunderground v.1.15,2013-01-03 01:24:00,
2013-01-02 20:30:00,7.4,-5.0,30.09,WNW,282,1.0,2.0,56,0.00,,,0.00,Wunderground v.1.15,2013-01-03 01:30:00,
2013-01-02 20:35:00,7.0,-5.0,30.09,NW,304,2.0,2.0,57,0.00,,,0.00,Wunderground v.1.15,2013-01-03 01:35:00,
2013-01-02 20:40:00,6.9,-5.1,30.09,West,268,1.0,4.0,57,0.00,,,0.00,Wunderground v.1.15,2013-01-03 01:40:00,
2013-01-02 20:45:00,6.7,-5.3,30.10,WNW,297,1.0,4.0,57,0.00,,,0.00,Wunderground v.1.15,2013-01-03 01:45:00,
2013-01-02 20:50:00,6.5,-5.9,30.10,West,279,1.0,2.0,56,0.00,,,0.00,Wunderground v.1.15,2013-01-03 01:50:00,
2013-01-02 20:55:00,6.5,-5.9,30.10,West,268,0.0,2.0,56,0.00,,,0.00,Wunderground v.1.15,2013-01-03 01:55:00,
2013-01-02 21:01:00,6.3,-5.3,30.10,West,265,0.0,1.0,58,0.00,,,0.00,Wunderground v.1.15,2013-01-03 02:01:00,
2013-01-02 21:06:00,6.3,-5.0,30.10,West,272,2.0,2.0,59,0.00,,,0.00,Wunderground v.1.15,2013-01-03 02:06:00,
2013-01-02 21:11:00,6.1,-5.5,30.10,West,259,0.0,2.0,58,0.00,,,0.00,Wunderground v.1.15,2013-01-03 02:11:00,
2013-01-02 21:16:00,6.0,-5.3,30.11,West,262,1.0,1.0,59,0.00,,,0.00,Wunderground v.1.15,2013-01-03 02:16:00,
2013-01-02 21:21:00,5.8,-5.8,30.11,WNW,286,0.0,4.0,58,0.00,,,0.00,Wunderground v.1.15,2013-01-03 02:21:00,
2013-01-02 21:26:00,5.6,-6.0,30.11,WNW,299,2.0,2.0,58,0.00,,,0.00,Wunderground v.1.15,2013-01-03 02:26:00,
2013-01-02 21:31:00,5.4,-6.6,30.11,WNW,286,1.0,2.0,57,0.00,,,0.00,Wunderground v.1.15,2013-01-03 02:31:00,
2013-01-02 21:36:00,5.2,-6.7,30.11,WNW,290,0.0,0.0,57,0.00,,,0.00,Wunderground v.1.15,2013-01-03 02:36:00,
2013-01-02 21:42:00,4.8,-7.5,30.12,WNW,303,0.0,2.0,56,0.00,,,0.00,Wunderground v.1.15,2013-01-03 02:42:00,
2013-01-02 21:47:00,4.8,-7.5,30.12,SW,232,0.0,6.0,56,0.00,,,0.00,Wunderground v.1.15,2013-01-03 02:47:00,
2013-01-02 21:52:00,4.7,-6.9,30.12,West,263,0.0,6.0,58,0.00,,,0.00,Wunderground v.1.15,2013-01-03 02:52:00,
2013-01-02 21:58:00,4.5,-7.4,30.11,West,270,2.0,2.0,57,0.00,,,0.00,Wunderground v.1.15,2013-01-03 02:58:00,
2013-01-02 22:03:00,4.3,-7.6,30.11,West,275,0.0,2.0,57,0.00,,,0.00,Wunderground v.1.15,2013-01-03 03:03:00,
2013-01-02 22:08:00,4.1,-7.4,30.11,South,187,0.0,2.0,58,0.00,,,0.00,Wunderground v.1.15,2013-01-03 03:08:00,
2013-01-02 22:13:00,4.1,-7.4,30.13,South,183,0.0,2.0,58,0.00,,,0.00,Wunderground v.1.15,2013-01-03 03:13:00,
2013-01-02 22:18:00,3.9,-7.6,30.13,South,183,0.0,1.0,58,0.00,,,0.00,Wunderground v.1.15,2013-01-03 03:18:00,
2013-01-02 22:23:00,3.7,-7.5,30.13,South,183,0.0,1.0,59,0.00,,,0.00,Wunderground v.1.15,2013-01-03 03:23:00,
2013-01-02 22:29:00,3.7,-7.8,30.13,South,183,0.0,1.0,58,0.00,,,0.00,Wunderground v.1.15,2013-01-03 03:29:00,
2013-01-02 22:35:00,3.5,-7.6,30.13,WSW,256,0.0,1.0,59,0.00,,,0.00,Wunderground v.1.15,2013-01-03 03:35:00,
2013-01-02 22:40:00,3.4,-8.1,30.13,WSW,255,0.0,1.0,58,0.00,,,0.00,Wunderground v.1.15,2013-01-03 03:40:00,
2013-01-02 22:45:00,3.2,-7.6,30.12,WSW,255,1.0,2.0,60,0.00,,,0.00,Wunderground v.1.15,2013-01-03 03:45:00,
2013-01-02 22:50:00,3.0,-7.1,30.12,WSW,255,0.0,1.0,62,0.00,,,0.00,Wunderground v.1.15,2013-01-03 03:50:00,
2013-01-02 22:56:00,3.0,-7.1,30.12,WSW,255,0.0,1.0,62,0.00,,,0.00,Wunderground v.1.15,2013-01-03 03:56:00,
2013-01-02 23:01:00,2.8,-7.3,30.12,WSW,255,0.0,1.0,62,0.00,,,0.00,Wunderground v.1.15,2013-01-03 04:01:00,
2013-01-02 23:06:00,2.6,-7.5,30.12,SW,228,1.0,1.0,62,0.00,,,0.00,Wunderground v.1.15,2013-01-03 04:06:00,
2013-01-02 23:11:00,2.6,-7.5,30.11,SW,224,1.0,1.0,62,0.00,,,0.00,Wunderground v.1.15,2013-01-03 04:11:00,
2013-01-02 23:17:00,2.4,-7.7,30.11,SW,225,0.0,0.0,62,0.00,,,0.00,Wunderground v.1.15,2013-01-03 04:17:00,
2013-01-02 23:22:00,2.4,-7.7,30.11,SW,227,1.0,1.0,62,0.00,,,0.00,Wunderground v.1.15,2013-01-03 04:22:00,
2013-01-02 23:27:00,2.2,-7.9,30.12,SSW,210,1.0,1.0,62,0.00,,,0.00,Wunderground v.1.15,2013-01-03 04:27:00,
2013-01-02 23:32:00,2.2,-8.2,30.12,SW,234,1.0,2.0,61,0.00,,,0.00,Wunderground v.1.15,2013-01-03 04:32:00,
2013-01-02 23:38:00,2.2,-8.2,30.12,WSW,244,0.0,2.0,61,0.00,,,0.00,Wunderground v.1.15,2013-01-03 04:38:00,
2013-01-02 23:43:00,2.0,-8.0,30.12,West,265,0.0,2.0,62,0.00,,,0.00,Wunderground v.1.15,2013-01-03 04:43:00,
2013-01-02 23:48:00,2.0,-8.4,30.12,WNW,285,1.0,1.0,61,0.00,,,0.00,Wunderground v.1.15,2013-01-03 04:48:00,
2013-01-02 23:53:00,1.8,-8.6,30.12,South,180,1.0,6.0,61,0.00,,,0.00,Wunderground v.1.15,2013-01-03 04:53:00,
2013-01-02 23:59:00,1.8,-8.9,30.12,South,180,0.0,1.0,60,0.00,,,0.00,Wunderground v.1.15,2013-01-03 04:59:00,